sensor_id;sensor_type;location;lat;lon;timestamp;pressure;altitude;pressure_sealevel;temperature;humidity
18858;BME280;9558;50.178;8.370;2022-12-31T00:01:47;97665.19;;;10.95;100.00
18858;BME280;9558;50.178;8.370;2022-12-31T00:04:14;97665.78;;;10.97;100.00
18858;BME280;9558;50.178;8.370;2022-12-31T00:06:41;97663.81;;;10.99;100.00
18858;BME280;9558;50.178;8.370;2022-12-31T00:09:14;97661.84;;;11.01;100.00
18858;BME280;9558;50.178;8.370;2022-12-31T00:11:42;97660.84;;;11.02;100.00
18858;BME280;9558;50.178;8.370;2022-12-31T00:14:08;97667.25;;;11.06;100.00
18858;BME280;9558;50.178;8.370;2022-12-31T00:16:37;97665.06;;;11.10;100.00
18858;BME280;9558;50.178;8.370;2022-12-31T00:19:05;97669.28;;;11.11;100.00
18858;BME280;9558;50.178;8.370;2022-12-31T00:21:32;97666.50;;;11.12;100.00
18858;BME280;9558;50.178;8.370;2022-12-31T00:23:59;97661.91;;;11.14;100.00
18858;BME280;9558;50.178;8.370;2022-12-31T00:26:28;97672.69;;;11.18;100.00
18858;BME280;9558;50.178;8.370;2022-12-31T00:28:58;97669.13;;;11.19;100.00
18858;BME280;9558;50.178;8.370;2022-12-31T00:31:26;97663.75;;;11.20;100.00
18858;BME280;9558;50.178;8.370;2022-12-31T00:33:54;97670.16;;;11.24;100.00
18858;BME280;9558;50.178;8.370;2022-12-31T00:36:25;97665.56;;;11.27;100.00
18858;BME280;9558;50.178;8.370;2022-12-31T00:38:54;97656.41;;;11.31;100.00
18858;BME280;9558;50.178;8.370;2022-12-31T00:41:22;97651.63;;;11.34;100.00
18858;BME280;9558;50.178;8.370;2022-12-31T00:43:49;97648.84;;;11.36;100.00
18858;BME280;9558;50.178;8.370;2022-12-31T00:46:17;97657.25;;;11.38;100.00
18858;BME280;9558;50.178;8.370;2022-12-31T00:48:44;97671.41;;;11.42;100.00
18858;BME280;9558;50.178;8.370;2022-12-31T00:51:12;97668.00;;;11.41;100.00
18858;BME280;9558;50.178;8.370;2022-12-31T00:53:39;97678.19;;;11.43;100.00
18858;BME280;9558;50.178;8.370;2022-12-31T00:56:09;97675.22;;;11.46;100.00
18858;BME280;9558;50.178;8.370;2022-12-31T00:58:36;97672.25;;;11.49;100.00
18858;BME280;9558;50.178;8.370;2022-12-31T01:01:07;97679.03;;;11.50;100.00
18858;BME280;9558;50.178;8.370;2022-12-31T01:03:35;97679.63;;;11.52;100.00
18858;BME280;9558;50.178;8.370;2022-12-31T01:06:02;97682.03;;;11.54;100.00
18858;BME280;9558;50.178;8.370;2022-12-31T01:08:29;97681.63;;;11.57;100.00
18858;BME280;9558;50.178;8.370;2022-12-31T01:10:55;97696.19;;;11.58;100.00
18858;BME280;9558;50.178;8.370;2022-12-31T01:13:40;97692.44;;;11.61;100.00
18858;BME280;9558;50.178;8.370;2022-12-31T01:16:07;97707.78;;;11.62;100.00
18858;BME280;9558;50.178;8.370;2022-12-31T01:18:33;97699.81;;;11.64;100.00
18858;BME280;9558;50.178;8.370;2022-12-31T01:21:02;97694.63;;;11.64;100.00
18858;BME280;9558;50.178;8.370;2022-12-31T01:23:29;97689.25;;;11.65;100.00
18858;BME280;9558;50.178;8.370;2022-12-31T01:25:58;97701.03;;;11.68;100.00
18858;BME280;9558;50.178;8.370;2022-12-31T01:28:25;97707.63;;;11.70;100.00
18858;BME280;9558;50.178;8.370;2022-12-31T01:30:53;97702.44;;;11.70;100.00
18858;BME280;9558;50.178;8.370;2022-12-31T01:33:19;97708.22;;;11.72;100.00
18858;BME280;9558;50.178;8.370;2022-12-31T01:35:46;97710.41;;;11.75;100.00
18858;BME280;9558;50.178;8.370;2022-12-31T01:38:14;97717.00;;;11.78;100.00
18858;BME280;9558;50.178;8.370;2022-12-31T01:40:41;97714.22;;;11.80;100.00
18858;BME280;9558;50.178;8.370;2022-12-31T01:43:14;97708.84;;;11.81;100.00
18858;BME280;9558;50.178;8.370;2022-12-31T01:45:42;97705.25;;;11.82;100.00
18858;BME280;9558;50.178;8.370;2022-12-31T01:48:11;97704.09;;;11.85;100.00
18858;BME280;9558;50.178;8.370;2022-12-31T01:50:40;97698.09;;;11.84;100.00
18858;BME280;9558;50.178;8.370;2022-12-31T01:53:09;97703.06;;;11.86;100.00
18858;BME280;9558;50.178;8.370;2022-12-31T01:55:42;97696.09;;;11.86;100.00
18858;BME280;9558;50.178;8.370;2022-12-31T01:58:12;97709.66;;;11.88;100.00
18858;BME280;9558;50.178;8.370;2022-12-31T02:00:40;97721.03;;;11.87;100.00
18858;BME280;9558;50.178;8.370;2022-12-31T02:03:07;97706.47;;;11.86;100.00
18858;BME280;9558;50.178;8.370;2022-12-31T02:05:37;97723.03;;;11.85;100.00
18858;BME280;9558;50.178;8.370;2022-12-31T02:08:05;97725.63;;;11.85;100.00
18858;BME280;9558;50.178;8.370;2022-12-31T02:10:32;97718.44;;;11.87;100.00
18858;BME280;9558;50.178;8.370;2022-12-31T02:13:00;97712.69;;;11.92;100.00
18858;BME280;9558;50.178;8.370;2022-12-31T02:15:38;97725.84;;;11.90;100.00
18858;BME280;9558;50.178;8.370;2022-12-31T02:18:09;97725.66;;;11.92;100.00
18858;BME280;9558;50.178;8.370;2022-12-31T02:21:12;97723.25;;;11.90;100.00
18858;BME280;9558;50.178;8.370;2022-12-31T02:24:05;97722.88;;;11.93;100.00
18858;BME280;9558;50.178;8.370;2022-12-31T02:26:52;97737.19;;;11.89;100.00
18858;BME280;9558;50.178;8.370;2022-12-31T02:32:29;97728.44;;;11.90;100.00
18858;BME280;9558;50.178;8.370;2022-12-31T02:35:00;97739.16;;;11.87;100.00
18858;BME280;9558;50.178;8.370;2022-12-31T02:37:29;97738.81;;;11.90;100.00
18858;BME280;9558;50.178;8.370;2022-12-31T02:39:57;97718.66;;;11.92;100.00
18858;BME280;9558;50.178;8.370;2022-12-31T02:42:24;97722.50;;;11.97;100.00
18858;BME280;9558;50.178;8.370;2022-12-31T02:44:50;97735.47;;;11.97;100.00
18858;BME280;9558;50.178;8.370;2022-12-31T02:47:23;97740.44;;;11.98;100.00
18858;BME280;9558;50.178;8.370;2022-12-31T02:50:05;97740.06;;;11.95;100.00
18858;BME280;9558;50.178;8.370;2022-12-31T02:52:47;97734.88;;;11.95;100.00
18858;BME280;9558;50.178;8.370;2022-12-31T02:55:24;97737.47;;;11.95;100.00
18858;BME280;9558;50.178;8.370;2022-12-31T02:58:00;97741.03;;;12.00;100.00
18858;BME280;9558;50.178;8.370;2022-12-31T03:00:32;97741.22;;;11.99;100.00
18858;BME280;9558;50.178;8.370;2022-12-31T03:03:19;97731.69;;;11.99;100.00
18858;BME280;9558;50.178;8.370;2022-12-31T03:05:48;97736.44;;;11.96;100.00
18858;BME280;9558;50.178;8.370;2022-12-31T03:08:20;97747.25;;;11.99;100.00
18858;BME280;9558;50.178;8.370;2022-12-31T03:10:46;97735.50;;;12.03;100.00
18858;BME280;9558;50.178;8.370;2022-12-31T03:13:13;97735.28;;;12.05;100.00
18858;BME280;9558;50.178;8.370;2022-12-31T03:15:39;97743.06;;;12.05;100.00
18858;BME280;9558;50.178;8.370;2022-12-31T03:18:07;97733.91;;;12.09;100.00
18858;BME280;9558;50.178;8.370;2022-12-31T03:20:36;97740.47;;;12.05;100.00
18858;BME280;9558;50.178;8.370;2022-12-31T03:23:26;97748.47;;;12.03;100.00
18858;BME280;9558;50.178;8.370;2022-12-31T03:25:54;97747.63;;;12.03;100.00
18858;BME280;9558;50.178;8.370;2022-12-31T03:28:22;97742.44;;;12.03;100.00
18858;BME280;9558;50.178;8.370;2022-12-31T03:30:51;97737.88;;;12.05;100.00
18858;BME280;9558;50.178;8.370;2022-12-31T03:33:18;97740.09;;;12.08;100.00
18858;BME280;9558;50.178;8.370;2022-12-31T03:35:46;97746.25;;;12.07;100.00
18858;BME280;9558;50.178;8.370;2022-12-31T03:38:15;97743.84;;;12.05;100.00
18858;BME280;9558;50.178;8.370;2022-12-31T03:40:46;97749.25;;;12.04;100.00
18858;BME280;9558;50.178;8.370;2022-12-31T03:43:13;97755.66;;;12.08;100.00
18858;BME280;9558;50.178;8.370;2022-12-31T03:48:22;97764.03;;;12.10;100.00
18858;BME280;9558;50.178;8.370;2022-12-31T03:50:56;97784.78;;;12.10;100.00
18858;BME280;9558;50.178;8.370;2022-12-31T03:53:29;97767.44;;;12.10;100.00
18858;BME280;9558;50.178;8.370;2022-12-31T03:55:57;97771.41;;;12.13;100.00
18858;BME280;9558;50.178;8.370;2022-12-31T03:58:24;97770.22;;;12.16;100.00
18858;BME280;9558;50.178;8.370;2022-12-31T04:00:50;97774.00;;;12.13;100.00
18858;BME280;9558;50.178;8.370;2022-12-31T04:03:17;97791.56;;;12.11;100.00
18858;BME280;9558;50.178;8.370;2022-12-31T04:05:44;97788.78;;;12.13;100.00
18858;BME280;9558;50.178;8.370;2022-12-31T04:08:10;97792.16;;;12.13;100.00
18858;BME280;9558;50.178;8.370;2022-12-31T04:10:37;97773.00;;;12.14;100.00
18858;BME280;9558;50.178;8.370;2022-12-31T04:13:05;97792.16;;;12.13;100.00
18858;BME280;9558;50.178;8.370;2022-12-31T04:15:31;97783.19;;;12.16;100.00
18858;BME280;9558;50.178;8.370;2022-12-31T04:17:58;97799.94;;;12.13;100.00
18858;BME280;9558;50.178;8.370;2022-12-31T04:20:32;97812.31;;;12.11;100.00
18858;BME280;9558;50.178;8.370;2022-12-31T04:22:59;97808.34;;;12.15;100.00
18858;BME280;9558;50.178;8.370;2022-12-31T04:25:25;97820.13;;;12.18;100.00
18858;BME280;9558;50.178;8.370;2022-12-31T04:27:52;97815.94;;;12.17;100.00
18858;BME280;9558;50.178;8.370;2022-12-31T04:30:20;97818.72;;;12.15;100.00
18858;BME280;9558;50.178;8.370;2022-12-31T04:32:47;97819.13;;;12.12;100.00
18858;BME280;9558;50.178;8.370;2022-12-31T04:35:14;97814.13;;;12.17;100.00
18858;BME280;9558;50.178;8.370;2022-12-31T04:37:40;97810.75;;;12.17;100.00
18858;BME280;9558;50.178;8.370;2022-12-31T04:40:08;97818.72;;;12.15;100.00
18858;BME280;9558;50.178;8.370;2022-12-31T04:42:35;97808.94;;;12.17;100.00
18858;BME280;9558;50.178;8.370;2022-12-31T04:45:02;97806.34;;;12.17;100.00
18858;BME280;9558;50.178;8.370;2022-12-31T04:47:30;97813.53;;;12.15;100.00
18858;BME280;9558;50.178;8.370;2022-12-31T04:49:56;97812.91;;;12.13;100.00
18858;BME280;9558;50.178;8.370;2022-12-31T04:52:23;97810.94;;;12.15;100.00
18858;BME280;9558;50.178;8.370;2022-12-31T04:54:50;97824.69;;;12.09;100.00
18858;BME280;9558;50.178;8.370;2022-12-31T04:57:16;97817.47;;;12.04;100.00
18858;BME280;9558;50.178;8.370;2022-12-31T04:59:43;97844.81;;;12.07;100.00
18858;BME280;9558;50.178;8.370;2022-12-31T05:02:09;97829.44;;;12.05;100.00
18858;BME280;9558;50.178;8.370;2022-12-31T05:04:37;97826.66;;;12.07;100.00
18858;BME280;9558;50.178;8.370;2022-12-31T05:07:04;97835.06;;;12.09;100.00
18858;BME280;9558;50.178;8.370;2022-12-31T05:09:30;97840.63;;;12.06;100.00
18858;BME280;9558;50.178;8.370;2022-12-31T05:11:57;97847.41;;;12.07;100.00
18858;BME280;9558;50.178;8.370;2022-12-31T05:14:24;97852.59;;;12.07;100.00
18858;BME280;9558;50.178;8.370;2022-12-31T05:16:50;97852.59;;;12.07;100.00
18858;BME280;9558;50.178;8.370;2022-12-31T05:19:17;97838.44;;;12.09;100.00
18858;BME280;9558;50.178;8.370;2022-12-31T05:21:45;97853.81;;;12.11;100.00
18858;BME280;9558;50.178;8.370;2022-12-31T05:24:32;97854.81;;;12.10;100.00
18858;BME280;9558;50.178;8.370;2022-12-31T05:26:58;97842.47;;;12.12;100.00
18858;BME280;9558;50.178;8.370;2022-12-31T05:29:25;97853.44;;;12.14;100.00
18858;BME280;9558;50.178;8.370;2022-12-31T05:31:52;97842.25;;;12.14;100.00
18858;BME280;9558;50.178;8.370;2022-12-31T05:34:18;97845.44;;;12.09;100.00
18858;BME280;9558;50.178;8.370;2022-12-31T05:36:46;97848.03;;;12.09;100.00
18858;BME280;9558;50.178;8.370;2022-12-31T05:39:13;97852.22;;;12.10;100.00
18858;BME280;9558;50.178;8.370;2022-12-31T05:41:40;97862.19;;;12.13;100.00
18858;BME280;9558;50.178;8.370;2022-12-31T05:44:06;97862.19;;;12.13;100.00
18858;BME280;9558;50.178;8.370;2022-12-31T05:46:33;97850.25;;;12.12;100.00
18858;BME280;9558;50.178;8.370;2022-12-31T05:48:59;97858.03;;;12.12;100.00
18858;BME280;9558;50.178;8.370;2022-12-31T05:51:26;97855.81;;;12.16;100.00
18858;BME280;9558;50.178;8.370;2022-12-31T05:53:53;97846.28;;;12.16;100.00
18858;BME280;9558;50.178;8.370;2022-12-31T05:56:20;97841.44;;;12.13;100.00
18858;BME280;9558;50.178;8.370;2022-12-31T05:58:47;97839.47;;;12.15;100.00
18858;BME280;9558;50.178;8.370;2022-12-31T06:01:13;97839.47;;;12.15;100.00
18858;BME280;9558;50.178;8.370;2022-12-31T06:03:40;97851.81;;;12.13;100.00
18858;BME280;9558;50.178;8.370;2022-12-31T06:06:07;97845.44;;;12.16;100.00
18858;BME280;9558;50.178;8.370;2022-12-31T06:08:33;97846.63;;;12.13;100.00
18858;BME280;9558;50.178;8.370;2022-12-31T06:11:01;97869.00;;;12.14;100.00
18858;BME280;9558;50.178;8.370;2022-12-31T06:13:28;97858.22;;;12.17;100.00
18858;BME280;9558;50.178;8.370;2022-12-31T06:15:54;97859.84;;;12.18;100.00
18858;BME280;9558;50.178;8.370;2022-12-31T06:18:20;97857.63;;;12.15;100.00
18858;BME280;9558;50.178;8.370;2022-12-31T06:20:47;97877.16;;;12.11;100.00
18858;BME280;9558;50.178;8.370;2022-12-31T06:23:14;97863.22;;;12.12;100.00
18858;BME280;9558;50.178;8.370;2022-12-31T06:25:40;97876.78;;;12.14;100.00
18858;BME280;9558;50.178;8.370;2022-12-31T06:28:08;97885.78;;;12.18;100.00
18858;BME280;9558;50.178;8.370;2022-12-31T06:30:35;97896.53;;;12.15;100.00
18858;BME280;9558;50.178;8.370;2022-12-31T06:33:02;97900.16;;;12.21;100.00
18858;BME280;9558;50.178;8.370;2022-12-31T06:35:29;97898.97;;;12.23;100.00
18858;BME280;9558;50.178;8.370;2022-12-31T06:37:55;97895.00;;;12.27;100.00
18858;BME280;9558;50.178;8.370;2022-12-31T06:40:22;97909.16;;;12.25;100.00
18858;BME280;9558;50.178;8.370;2022-12-31T06:42:48;97903.59;;;12.28;100.00
18858;BME280;9558;50.178;8.370;2022-12-31T06:45:16;97890.81;;;12.26;100.00
18858;BME280;9558;50.178;8.370;2022-12-31T06:47:43;97879.25;;;12.29;100.00
18858;BME280;9558;50.178;8.370;2022-12-31T06:50:09;97890.41;;;12.30;100.00
18858;BME280;9558;50.178;8.370;2022-12-31T06:52:36;97878.22;;;12.30;100.00
18858;BME280;9558;50.178;8.370;2022-12-31T06:55:04;97878.03;;;12.32;100.00
18858;BME280;9558;50.178;8.370;2022-12-31T06:57:31;97886.25;;;12.35;100.00
18858;BME280;9558;50.178;8.370;2022-12-31T06:59:58;97881.84;;;12.36;100.00
18858;BME280;9558;50.178;8.370;2022-12-31T07:02:39;97889.03;;;12.34;100.00
18858;BME280;9558;50.178;8.370;2022-12-31T07:05:28;97879.50;;;12.41;100.00
18858;BME280;9558;50.178;8.370;2022-12-31T07:08:07;97880.72;;;12.45;100.00
18858;BME280;9558;50.178;8.370;2022-12-31T07:10:43;97894.47;;;12.45;100.00
18858;BME280;9558;50.178;8.370;2022-12-31T07:13:16;97890.09;;;12.46;100.00
18858;BME280;9558;50.178;8.370;2022-12-31T07:15:58;97899.06;;;12.50;100.00
18858;BME280;9558;50.178;8.370;2022-12-31T07:18:35;97894.91;;;12.49;100.00
18858;BME280;9558;50.178;8.370;2022-12-31T07:21:09;97882.31;;;12.46;100.00
18858;BME280;9558;50.178;8.370;2022-12-31T07:23:38;97899.91;;;12.51;100.00
18858;BME280;9558;50.178;8.370;2022-12-31T07:26:07;97894.28;;;12.47;100.00
18858;BME280;9558;50.178;8.370;2022-12-31T07:28:48;97899.31;;;12.55;100.00
18858;BME280;9558;50.178;8.370;2022-12-31T07:31:24;97901.91;;;12.55;100.00
18858;BME280;9558;50.178;8.370;2022-12-31T07:33:57;97925.06;;;12.57;100.00
18858;BME280;9558;50.178;8.370;2022-12-31T07:36:48;97914.28;;;12.53;100.00
18858;BME280;9558;50.178;8.370;2022-12-31T07:39:23;97914.50;;;12.58;100.00
18858;BME280;9558;50.178;8.370;2022-12-31T07:41:57;97910.28;;;12.57;100.00
18858;BME280;9558;50.178;8.370;2022-12-31T07:44:37;97910.69;;;12.54;100.00
18858;BME280;9558;50.178;8.370;2022-12-31T07:47:16;97912.69;;;12.52;100.00
18858;BME280;9558;50.178;8.370;2022-12-31T07:49:47;97928.28;;;12.59;100.00
18858;BME280;9558;50.178;8.370;2022-12-31T07:52:14;97919.47;;;12.60;100.00
18858;BME280;9558;50.178;8.370;2022-12-31T07:54:40;97934.47;;;12.58;100.00
18858;BME280;9558;50.178;8.370;2022-12-31T07:57:08;97928.69;;;12.62;100.00
18858;BME280;9558;50.178;8.370;2022-12-31T07:59:43;97928.28;;;12.66;100.00
18858;BME280;9558;50.178;8.370;2022-12-31T08:02:17;97929.72;;;12.68;100.00
18858;BME280;9558;50.178;8.370;2022-12-31T08:04:55;97932.09;;;12.70;100.00
18858;BME280;9558;50.178;8.370;2022-12-31T08:07:34;97929.53;;;12.76;100.00
18858;BME280;9558;50.178;8.370;2022-12-31T08:10:05;97940.13;;;12.75;100.00
18858;BME280;9558;50.178;8.370;2022-12-31T08:12:35;97949.91;;;12.79;100.00
18858;BME280;9558;50.178;8.370;2022-12-31T08:15:11;97961.88;;;12.74;100.00
18858;BME280;9558;50.178;8.370;2022-12-31T08:17:38;97977.88;;;12.77;100.00
18858;BME280;9558;50.178;8.370;2022-12-31T08:20:11;97977.69;;;12.79;100.00
18858;BME280;9558;50.178;8.370;2022-12-31T08:22:49;97973.09;;;12.81;100.00
18858;BME280;9558;50.178;8.370;2022-12-31T08:25:24;97970.72;;;12.86;100.00
18858;BME280;9558;50.178;8.370;2022-12-31T08:28:02;97980.34;;;12.92;100.00
18858;BME280;9558;50.178;8.370;2022-12-31T08:30:38;97975.13;;;12.92;100.00
18858;BME280;9558;50.178;8.370;2022-12-31T08:33:11;97969.34;;;12.97;100.00
18858;BME280;9558;50.178;8.370;2022-12-31T08:35:50;97990.94;;;12.98;100.00
18858;BME280;9558;50.178;8.370;2022-12-31T08:38:25;97975.56;;;13.03;100.00
18858;BME280;9558;50.178;8.370;2022-12-31T08:40:59;97980.75;;;13.03;100.00
18858;BME280;9558;50.178;8.370;2022-12-31T08:43:39;97973.19;;;13.08;100.00
18858;BME280;9558;50.178;8.370;2022-12-31T08:46:18;97977.59;;;13.14;100.00
18858;BME280;9558;50.178;8.370;2022-12-31T08:48:46;97986.19;;;13.14;100.00
18858;BME280;9558;50.178;8.370;2022-12-31T08:51:18;97982.00;;;13.20;100.00
18858;BME280;9558;50.178;8.370;2022-12-31T08:53:45;97976.78;;;13.20;100.00
18858;BME280;9558;50.178;8.370;2022-12-31T08:56:22;97976.44;;;13.23;100.00
18858;BME280;9558;50.178;8.370;2022-12-31T08:58:59;97976.44;;;13.23;100.00
18858;BME280;9558;50.178;8.370;2022-12-31T09:01:32;97979.63;;;13.25;100.00
18858;BME280;9558;50.178;8.370;2022-12-31T09:04:10;97991.63;;;13.26;100.00
18858;BME280;9558;50.178;8.370;2022-12-31T09:06:48;98000.63;;;13.30;100.00
18858;BME280;9558;50.178;8.370;2022-12-31T09:09:25;98003.22;;;13.30;100.00
18858;BME280;9558;50.178;8.370;2022-12-31T09:12:02;97992.44;;;13.34;100.00
18858;BME280;9558;50.178;8.370;2022-12-31T09:14:41;98001.22;;;13.32;100.00
18858;BME280;9558;50.178;8.370;2022-12-31T09:17:23;98005.44;;;13.34;100.00
18858;BME280;9558;50.178;8.370;2022-12-31T09:19:52;98009.84;;;13.40;100.00
18858;BME280;9558;50.178;8.370;2022-12-31T09:22:21;98003.06;;;13.39;100.00
18858;BME280;9558;50.178;8.370;2022-12-31T09:24:48;98015.69;;;13.42;100.00
18858;BME280;9558;50.178;8.370;2022-12-31T09:27:19;98017.88;;;13.45;100.00
18858;BME280;9558;50.178;8.370;2022-12-31T09:29:54;98017.25;;;13.43;100.00
18858;BME280;9558;50.178;8.370;2022-12-31T09:32:29;98024.66;;;13.39;100.00
18858;BME280;9558;50.178;8.370;2022-12-31T09:35:03;98031.66;;;13.45;100.00
18858;BME280;9558;50.178;8.370;2022-12-31T09:37:40;98016.06;;;13.45;100.00
18858;BME280;9558;50.178;8.370;2022-12-31T09:40:28;98006.47;;;13.46;100.00
18858;BME280;9558;50.178;8.370;2022-12-31T09:46:28;98021.47;;;13.44;100.00
18858;BME280;9558;50.178;8.370;2022-12-31T09:52:12;98015.09;;;13.53;100.00
18858;BME280;9558;50.178;8.370;2022-12-31T09:54:49;98026.47;;;13.59;100.00
18858;BME280;9558;50.178;8.370;2022-12-31T09:57:35;98033.91;;;13.62;100.00
18858;BME280;9558;50.178;8.370;2022-12-31T10:00:10;98032.09;;;13.62;100.00
18858;BME280;9558;50.178;8.370;2022-12-31T10:02:51;98024.72;;;13.59;100.00
18858;BME280;9558;50.178;8.370;2022-12-31T10:05:51;98032.91;;;13.70;100.00
18858;BME280;9558;50.178;8.370;2022-12-31T10:08:35;98039.31;;;13.74;100.00
18858;BME280;9558;50.178;8.370;2022-12-31T10:11:14;98039.91;;;13.76;100.00
18858;BME280;9558;50.178;8.370;2022-12-31T10:13:51;98044.91;;;13.77;100.00
18858;BME280;9558;50.178;8.370;2022-12-31T10:16:46;98051.31;;;13.81;100.00
18858;BME280;9558;50.178;8.370;2022-12-31T10:19:44;98053.13;;;13.81;100.00
18858;BME280;9558;50.178;8.370;2022-12-31T10:22:48;98055.34;;;13.84;100.00
18858;BME280;9558;50.178;8.370;2022-12-31T10:25:25;98053.94;;;13.88;100.00
18858;BME280;9558;50.178;8.370;2022-12-31T10:27:59;98046.13;;;13.88;100.00
18858;BME280;9558;50.178;8.370;2022-12-31T10:30:33;98046.91;;;13.89;100.00
18858;BME280;9558;50.178;8.370;2022-12-31T10:33:06;98044.53;;;13.94;100.00
18858;BME280;9558;50.178;8.370;2022-12-31T10:35:41;98041.53;;;13.97;100.00
18858;BME280;9558;50.178;8.370;2022-12-31T10:38:16;98038.94;;;13.97;100.00
18858;BME280;9558;50.178;8.370;2022-12-31T10:41:25;98052.53;;;14.06;100.00
18858;BME280;9558;50.178;8.370;2022-12-31T10:44:21;98046.34;;;14.07;100.00
18858;BME280;9558;50.178;8.370;2022-12-31T10:47:11;98044.94;;;14.17;100.00
18858;BME280;9558;50.178;8.370;2022-12-31T10:50:07;98031.72;;;14.19;100.00
18858;BME280;9558;50.178;8.370;2022-12-31T10:53:14;98038.13;;;14.23;100.00
18858;BME280;9558;50.178;8.370;2022-12-31T10:59:25;98043.72;;;14.20;100.00
18858;BME280;9558;50.178;8.370;2022-12-31T11:02:08;98052.16;;;14.22;100.00
18858;BME280;9558;50.178;8.370;2022-12-31T11:05:02;98051.53;;;14.27;100.00
18858;BME280;9558;50.178;8.370;2022-12-31T11:07:41;98053.75;;;14.23;100.00
18858;BME280;9558;50.178;8.370;2022-12-31T11:10:35;98073.97;;;14.21;100.00
18858;BME280;9558;50.178;8.370;2022-12-31T11:16:17;98068.94;;;14.13;100.00
18858;BME280;9558;50.178;8.370;2022-12-31T11:18:51;98057.53;;;14.14;100.00
18858;BME280;9558;50.178;8.370;2022-12-31T11:21:32;98058.94;;;14.16;100.00
18858;BME280;9558;50.178;8.370;2022-12-31T11:24:07;98056.56;;;14.15;100.00
18858;BME280;9558;50.178;8.370;2022-12-31T11:26:49;98044.53;;;14.14;100.00
18858;BME280;9558;50.178;8.370;2022-12-31T11:29:33;98054.34;;;14.12;100.00
18858;BME280;9558;50.178;8.370;2022-12-31T11:32:21;98040.94;;;14.15;100.00
18858;BME280;9558;50.178;8.370;2022-12-31T11:35:05;98046.53;;;14.18;100.00
18858;BME280;9558;50.178;8.370;2022-12-31T11:37:43;98042.53;;;14.23;100.00
18858;BME280;9558;50.178;8.370;2022-12-31T11:40:31;98044.91;;;14.24;100.00
18858;BME280;9558;50.178;8.370;2022-12-31T11:43:03;98038.72;;;14.18;100.00
18858;BME280;9558;50.178;8.370;2022-12-31T11:45:42;98035.72;;;14.28;100.00
18858;BME280;9558;50.178;8.370;2022-12-31T11:48:18;98030.88;;;14.39;100.00
18858;BME280;9558;50.178;8.370;2022-12-31T11:50:54;98028.91;;;14.41;100.00
18858;BME280;9558;50.178;8.370;2022-12-31T11:53:40;98020.06;;;14.42;100.00
18858;BME280;9558;50.178;8.370;2022-12-31T11:56:16;98025.88;;;14.50;100.00
18858;BME280;9558;50.178;8.370;2022-12-31T11:58:46;98018.84;;;14.51;100.00
18858;BME280;9558;50.178;8.370;2022-12-31T12:01:17;98035.47;;;14.57;100.00
18858;BME280;9558;50.178;8.370;2022-12-31T12:03:47;98041.25;;;14.59;100.00
18858;BME280;9558;50.178;8.370;2022-12-31T12:06:16;98013.63;;;14.64;100.00
18858;BME280;9558;50.178;8.370;2022-12-31T12:08:45;98027.06;;;14.68;100.00
18858;BME280;9558;50.178;8.370;2022-12-31T12:11:17;98020.03;;;14.75;100.00
18858;BME280;9558;50.178;8.370;2022-12-31T12:13:44;98018.41;;;14.81;100.00
18858;BME280;9558;50.178;8.370;2022-12-31T12:16:10;98017.34;;;14.89;100.00
18858;BME280;9558;50.178;8.370;2022-12-31T12:18:41;98031.56;;;14.93;100.00
18858;BME280;9558;50.178;8.370;2022-12-31T12:21:11;98019.94;;;14.95;100.00
18858;BME280;9558;50.178;8.370;2022-12-31T12:23:39;98023.13;;;14.97;100.00
18858;BME280;9558;50.178;8.370;2022-12-31T12:26:25;98018.09;;;15.02;100.00
18858;BME280;9558;50.178;8.370;2022-12-31T12:28:51;98020.91;;;15.08;100.00
18858;BME280;9558;50.178;8.370;2022-12-31T12:31:20;98019.31;;;15.07;100.00
18858;BME280;9558;50.178;8.370;2022-12-31T12:33:49;98025.72;;;15.04;100.00
18858;BME280;9558;50.178;8.370;2022-12-31T12:36:18;98023.31;;;15.02;100.00
18858;BME280;9558;50.178;8.370;2022-12-31T12:38:46;98017.31;;;15.02;100.00
18858;BME280;9558;50.178;8.370;2022-12-31T12:41:19;98015.91;;;15.06;100.00
18858;BME280;9558;50.178;8.370;2022-12-31T12:43:48;98013.47;;;15.04;100.00
18858;BME280;9558;50.178;8.370;2022-12-31T12:46:20;98004.25;;;15.09;100.00
18858;BME280;9558;50.178;8.370;2022-12-31T12:48:48;98003.06;;;15.04;100.00
18858;BME280;9558;50.178;8.370;2022-12-31T12:51:31;98021.47;;;15.10;100.00
18858;BME280;9558;50.178;8.370;2022-12-31T12:54:08;98019.50;;;15.05;100.00
18858;BME280;9558;50.178;8.370;2022-12-31T12:56:41;98025.50;;;15.06;100.00
18858;BME280;9558;50.178;8.370;2022-12-31T13:02:26;98014.94;;;15.00;100.00
18858;BME280;9558;50.178;8.370;2022-12-31T13:05:04;98013.75;;;14.96;100.00
18858;BME280;9558;50.178;8.370;2022-12-31T13:07:40;98021.56;;;14.96;100.00
18858;BME280;9558;50.178;8.370;2022-12-31T13:10:23;98018.34;;;14.94;100.00
18858;BME280;9558;50.178;8.370;2022-12-31T13:12:56;98010.94;;;14.91;100.00
18858;BME280;9558;50.178;8.370;2022-12-31T13:15:31;98038.81;;;14.91;100.00
18858;BME280;9558;50.178;8.370;2022-12-31T13:18:04;98022.19;;;14.85;100.00
18858;BME280;9558;50.178;8.370;2022-12-31T13:20:40;98017.56;;;14.87;99.84
18858;BME280;9558;50.178;8.370;2022-12-31T13:23:16;98007.16;;;14.87;100.00
18858;BME280;9558;50.178;8.370;2022-12-31T13:25:57;97995.13;;;14.86;99.08
18858;BME280;9558;50.178;8.370;2022-12-31T13:28:25;98008.34;;;14.84;98.03
18858;BME280;9558;50.178;8.370;2022-12-31T13:30:54;97999.97;;;14.82;99.00
18858;BME280;9558;50.178;8.370;2022-12-31T13:33:25;98002.00;;;14.74;99.40
18858;BME280;9558;50.178;8.370;2022-12-31T13:35:55;97996.78;;;14.74;99.54
18858;BME280;9558;50.178;8.370;2022-12-31T13:38:26;97995.59;;;14.76;99.21
18858;BME280;9558;50.178;8.370;2022-12-31T13:40:58;97992.56;;;14.73;99.30
18858;BME280;9558;50.178;8.370;2022-12-31T13:43:35;97990.97;;;14.72;99.27
18858;BME280;9558;50.178;8.370;2022-12-31T13:46:11;98002.00;;;14.74;98.07
18858;BME280;9558;50.178;8.370;2022-12-31T13:48:47;97984.94;;;14.78;99.53
18858;BME280;9558;50.178;8.370;2022-12-31T13:51:22;97971.94;;;14.78;99.03